sensor_id;sensor_type;location;lat;lon;timestamp;P1;durP1;ratioP1;P2;durP2;ratioP2
7233;SDS011;3658;47.992;10.158;2023-05-08T00:01:55;1.57;;;1.40;;
7233;SDS011;3658;47.992;10.158;2023-05-08T00:04:22;1.30;;;1.20;;
7233;SDS011;3658;47.992;10.158;2023-05-08T00:06:48;1.30;;;1.20;;
7233;SDS011;3658;47.992;10.158;2023-05-08T00:09:17;1.50;;;1.40;;
7233;SDS011;3658;47.992;10.158;2023-05-08T00:11:43;1.20;;;1.10;;
7233;SDS011;3658;47.992;10.158;2023-05-08T00:14:10;1.23;;;1.13;;
7233;SDS011;3658;47.992;10.158;2023-05-08T00:16:37;1.20;;;1.10;;
7233;SDS011;3658;47.992;10.158;2023-05-08T00:19:04;1.30;;;1.20;;
7233;SDS011;3658;47.992;10.158;2023-05-08T00:21:30;1.40;;;1.30;;
7233;SDS011;3658;47.992;10.158;2023-05-08T00:23:57;1.30;;;1.20;;
7233;SDS011;3658;47.992;10.158;2023-05-08T00:26:25;1.30;;;1.20;;
7233;SDS011;3658;47.992;10.158;2023-05-08T00:28:52;1.20;;;1.10;;
7233;SDS011;3658;47.992;10.158;2023-05-08T00:31:19;1.30;;;1.20;;
7233;SDS011;3658;47.992;10.158;2023-05-08T00:33:46;1.30;;;1.20;;
7233;SDS011;3658;47.992;10.158;2023-05-08T00:36:12;1.30;;;1.20;;
7233;SDS011;3658;47.992;10.158;2023-05-08T00:38:39;1.30;;;1.20;;
7233;SDS011;3658;47.992;10.158;2023-05-08T00:41:06;0.90;;;0.90;;
7233;SDS011;3658;47.992;10.158;2023-05-08T00:43:34;1.13;;;1.03;;
7233;SDS011;3658;47.992;10.158;2023-05-08T00:46:01;1.30;;;1.20;;
7233;SDS011;3658;47.992;10.158;2023-05-08T00:48:29;1.40;;;1.20;;
7233;SDS011;3658;47.992;10.158;2023-05-08T00:50:59;1.30;;;1.20;;
7233;SDS011;3658;47.992;10.158;2023-05-08T00:53:27;1.27;;;1.17;;
7233;SDS011;3658;47.992;10.158;2023-05-08T00:55:58;1.00;;;1.00;;
7233;SDS011;3658;47.992;10.158;2023-05-08T00:58:25;1.30;;;1.20;;
7233;SDS011;3658;47.992;10.158;2023-05-08T01:00:54;1.10;;;1.00;;
7233;SDS011;3658;47.992;10.158;2023-05-08T01:03:22;1.00;;;1.00;;
7233;SDS011;3658;47.992;10.158;2023-05-08T01:05:50;1.20;;;1.10;;
7233;SDS011;3658;47.992;10.158;2023-05-08T01:08:16;1.30;;;1.20;;
7233;SDS011;3658;47.992;10.158;2023-05-08T01:10:45;1.00;;;1.00;;
7233;SDS011;3658;47.992;10.158;2023-05-08T01:13:17;0.90;;;0.90;;
7233;SDS011;3658;47.992;10.158;2023-05-08T01:15:59;1.20;;;1.10;;
7233;SDS011;3658;47.992;10.158;2023-05-08T01:18:35;1.20;;;1.10;;
7233;SDS011;3658;47.992;10.158;2023-05-08T01:21:11;1.20;;;1.10;;
7233;SDS011;3658;47.992;10.158;2023-05-08T01:33:00;1.10;;;1.00;;
7233;SDS011;3658;47.992;10.158;2023-05-08T01:35:33;0.90;;;0.90;;
7233;SDS011;3658;47.992;10.158;2023-05-08T01:38:11;1.00;;;1.00;;
7233;SDS011;3658;47.992;10.158;2023-05-08T01:40:52;1.00;;;1.00;;
7233;SDS011;3658;47.992;10.158;2023-05-08T01:43:24;1.07;;;1.00;;
7233;SDS011;3658;47.992;10.158;2023-05-08T01:45:55;0.97;;;0.97;;
7233;SDS011;3658;47.992;10.158;2023-05-08T01:48:27;0.90;;;0.90;;
7233;SDS011;3658;47.992;10.158;2023-05-08T01:50:59;1.20;;;1.10;;
7233;SDS011;3658;47.992;10.158;2023-05-08T01:53:31;1.20;;;1.10;;
7233;SDS011;3658;47.992;10.158;2023-05-08T01:56:04;0.90;;;0.90;;
7233;SDS011;3658;47.992;10.158;2023-05-08T01:58:35;1.23;;;1.13;;
7233;SDS011;3658;47.992;10.158;2023-05-08T02:01:03;1.10;;;1.00;;
7233;SDS011;3658;47.992;10.158;2023-05-08T02:03:32;0.90;;;0.90;;
7233;SDS011;3658;47.992;10.158;2023-05-08T02:06:00;1.20;;;1.10;;
7233;SDS011;3658;47.992;10.158;2023-05-08T02:08:28;1.20;;;1.10;;
7233;SDS011;3658;47.992;10.158;2023-05-08T02:10:56;1.10;;;1.00;;
7233;SDS011;3658;47.992;10.158;2023-05-08T02:13:25;0.90;;;0.90;;
7233;SDS011;3658;47.992;10.158;2023-05-08T02:15:53;0.90;;;0.90;;
7233;SDS011;3658;47.992;10.158;2023-05-08T02:18:22;1.00;;;0.97;;
7233;SDS011;3658;47.992;10.158;2023-05-08T02:20:51;0.90;;;0.90;;
7233;SDS011;3658;47.992;10.158;2023-05-08T02:23:20;0.90;;;0.90;;
7233;SDS011;3658;47.992;10.158;2023-05-08T02:25:49;0.90;;;0.90;;
7233;SDS011;3658;47.992;10.158;2023-05-08T02:28:17;0.80;;;0.80;;
7233;SDS011;3658;47.992;10.158;2023-05-08T02:30:45;0.90;;;0.90;;
7233;SDS011;3658;47.992;10.158;2023-05-08T02:33:14;0.80;;;0.80;;
7233;SDS011;3658;47.992;10.158;2023-05-08T02:35:42;0.90;;;0.90;;
7233;SDS011;3658;47.992;10.158;2023-05-08T02:38:12;0.90;;;0.90;;
7233;SDS011;3658;47.992;10.158;2023-05-08T02:40:41;0.83;;;0.83;;
7233;SDS011;3658;47.992;10.158;2023-05-08T02:43:12;0.90;;;0.90;;
7233;SDS011;3658;47.992;10.158;2023-05-08T02:45:40;0.90;;;0.90;;
7233;SDS011;3658;47.992;10.158;2023-05-08T02:48:12;0.73;;;0.73;;
7233;SDS011;3658;47.992;10.158;2023-05-08T02:50:44;0.83;;;0.83;;
7233;SDS011;3658;47.992;10.158;2023-05-08T02:53:22;1.10;;;1.00;;
7233;SDS011;3658;47.992;10.158;2023-05-08T02:55:59;0.90;;;0.90;;
7233;SDS011;3658;47.992;10.158;2023-05-08T02:58:33;0.83;;;0.83;;
7233;SDS011;3658;47.992;10.158;2023-05-08T03:01:10;0.90;;;0.90;;
7233;SDS011;3658;47.992;10.158;2023-05-08T03:03:45;0.90;;;0.90;;
7233;SDS011;3658;47.992;10.158;2023-05-08T03:06:18;1.00;;;1.00;;
7233;SDS011;3658;47.992;10.158;2023-05-08T03:08:49;0.90;;;0.90;;
7233;SDS011;3658;47.992;10.158;2023-05-08T03:11:18;0.90;;;0.90;;
7233;SDS011;3658;47.992;10.158;2023-05-08T03:13:49;0.90;;;0.90;;
7233;SDS011;3658;47.992;10.158;2023-05-08T03:16:22;0.90;;;0.90;;
7233;SDS011;3658;47.992;10.158;2023-05-08T03:18:51;0.80;;;0.80;;
7233;SDS011;3658;47.992;10.158;2023-05-08T03:21:21;0.90;;;0.90;;
7233;SDS011;3658;47.992;10.158;2023-05-08T03:23:54;0.80;;;0.80;;
7233;SDS011;3658;47.992;10.158;2023-05-08T03:26:23;0.80;;;0.80;;
7233;SDS011;3658;47.992;10.158;2023-05-08T03:28:51;0.97;;;0.97;;
7233;SDS011;3658;47.992;10.158;2023-05-08T03:31:21;0.80;;;0.80;;
7233;SDS011;3658;47.992;10.158;2023-05-08T03:33:49;0.70;;;0.70;;
7233;SDS011;3658;47.992;10.158;2023-05-08T03:36:18;0.83;;;0.83;;
7233;SDS011;3658;47.992;10.158;2023-05-08T03:38:46;0.80;;;0.80;;
7233;SDS011;3658;47.992;10.158;2023-05-08T03:41:15;0.70;;;0.70;;
7233;SDS011;3658;47.992;10.158;2023-05-08T03:43:42;0.60;;;0.60;;
7233;SDS011;3658;47.992;10.158;2023-05-08T03:46:09;0.77;;;0.77;;
7233;SDS011;3658;47.992;10.158;2023-05-08T03:48:37;0.73;;;0.73;;
7233;SDS011;3658;47.992;10.158;2023-05-08T03:51:04;0.80;;;0.80;;
7233;SDS011;3658;47.992;10.158;2023-05-08T03:53:31;0.90;;;0.90;;
7233;SDS011;3658;47.992;10.158;2023-05-08T03:55:59;0.80;;;0.80;;
7233;SDS011;3658;47.992;10.158;2023-05-08T03:58:30;0.87;;;0.87;;
7233;SDS011;3658;47.992;10.158;2023-05-08T04:01:03;0.77;;;0.77;;
7233;SDS011;3658;47.992;10.158;2023-05-08T04:03:40;0.70;;;0.70;;
7233;SDS011;3658;47.992;10.158;2023-05-08T04:06:16;0.80;;;0.80;;
7233;SDS011;3658;47.992;10.158;2023-05-08T04:09:00;0.70;;;0.70;;
7233;SDS011;3658;47.992;10.158;2023-05-08T04:11:31;0.83;;;0.83;;
7233;SDS011;3658;47.992;10.158;2023-05-08T04:14:07;0.90;;;0.90;;
7233;SDS011;3658;47.992;10.158;2023-05-08T04:16:38;0.70;;;0.70;;
7233;SDS011;3658;47.992;10.158;2023-05-08T04:19:14;0.70;;;0.70;;
7233;SDS011;3658;47.992;10.158;2023-05-08T04:21:45;0.80;;;0.80;;
7233;SDS011;3658;47.992;10.158;2023-05-08T04:24:15;0.70;;;0.70;;
7233;SDS011;3658;47.992;10.158;2023-05-08T04:26:44;0.70;;;0.70;;
7233;SDS011;3658;47.992;10.158;2023-05-08T04:29:13;0.70;;;0.70;;
7233;SDS011;3658;47.992;10.158;2023-05-08T04:31:40;0.80;;;0.80;;
7233;SDS011;3658;47.992;10.158;2023-05-08T04:34:08;0.70;;;0.70;;
7233;SDS011;3658;47.992;10.158;2023-05-08T04:36:35;0.87;;;0.80;;
7233;SDS011;3658;47.992;10.158;2023-05-08T04:39:02;0.70;;;0.70;;
7233;SDS011;3658;47.992;10.158;2023-05-08T04:41:29;0.70;;;0.70;;
7233;SDS011;3658;47.992;10.158;2023-05-08T04:43:56;0.80;;;0.80;;
7233;SDS011;3658;47.992;10.158;2023-05-08T04:46:24;0.70;;;0.70;;
7233;SDS011;3658;47.992;10.158;2023-05-08T04:48:51;0.80;;;0.80;;
7233;SDS011;3658;47.992;10.158;2023-05-08T04:51:18;0.60;;;0.60;;
7233;SDS011;3658;47.992;10.158;2023-05-08T04:53:44;0.60;;;0.50;;
7233;SDS011;3658;47.992;10.158;2023-05-08T04:56:11;1.00;;;0.90;;
7233;SDS011;3658;47.992;10.158;2023-05-08T04:58:38;0.80;;;0.80;;
7233;SDS011;3658;47.992;10.158;2023-05-08T05:01:05;0.80;;;0.80;;
7233;SDS011;3658;47.992;10.158;2023-05-08T05:03:33;4.63;;;1.60;;
7233;SDS011;3658;47.992;10.158;2023-05-08T05:06:00;1.20;;;0.90;;
7233;SDS011;3658;47.992;10.158;2023-05-08T05:08:27;3.27;;;1.10;;
7233;SDS011;3658;47.992;10.158;2023-05-08T05:10:54;1.90;;;1.37;;
7233;SDS011;3658;47.992;10.158;2023-05-08T05:13:20;0.90;;;0.90;;
7233;SDS011;3658;47.992;10.158;2023-05-08T05:15:47;4.67;;;1.10;;
7233;SDS011;3658;47.992;10.158;2023-05-08T05:18:15;1.40;;;1.00;;
7233;SDS011;3658;47.992;10.158;2023-05-08T05:20:44;2.33;;;0.90;;
7233;SDS011;3658;47.992;10.158;2023-05-08T05:23:11;2.60;;;0.90;;
7233;SDS011;3658;47.992;10.158;2023-05-08T05:25:38;4.53;;;1.00;;
7233;SDS011;3658;47.992;10.158;2023-05-08T05:28:05;1.57;;;1.10;;
7233;SDS011;3658;47.992;10.158;2023-05-08T05:30:32;0.87;;;0.87;;
7233;SDS011;3658;47.992;10.158;2023-05-08T05:32:59;3.13;;;0.80;;
7233;SDS011;3658;47.992;10.158;2023-05-08T05:35:25;1.40;;;1.00;;
7233;SDS011;3658;47.992;10.158;2023-05-08T05:37:54;1.23;;;1.00;;
7233;SDS011;3658;47.992;10.158;2023-05-08T05:40:20;1.10;;;0.97;;
7233;SDS011;3658;47.992;10.158;2023-05-08T05:42:47;2.63;;;1.07;;
7233;SDS011;3658;47.992;10.158;2023-05-08T05:45:15;1.10;;;0.90;;
7233;SDS011;3658;47.992;10.158;2023-05-08T05:47:45;2.60;;;1.00;;
7233;SDS011;3658;47.992;10.158;2023-05-08T05:50:13;3.43;;;1.20;;
7233;SDS011;3658;47.992;10.158;2023-05-08T05:52:41;3.47;;;1.13;;
7233;SDS011;3658;47.992;10.158;2023-05-08T05:55:09;1.50;;;1.00;;
7233;SDS011;3658;47.992;10.158;2023-05-08T05:57:36;1.13;;;1.03;;
7233;SDS011;3658;47.992;10.158;2023-05-08T06:00:03;1.30;;;1.20;;
7233;SDS011;3658;47.992;10.158;2023-05-08T06:02:31;1.33;;;1.10;;
7233;SDS011;3658;47.992;10.158;2023-05-08T06:04:58;3.03;;;1.13;;
7233;SDS011;3658;47.992;10.158;2023-05-08T06:07:25;1.77;;;1.30;;
7233;SDS011;3658;47.992;10.158;2023-05-08T06:09:52;2.43;;;1.00;;
7233;SDS011;3658;47.992;10.158;2023-05-08T06:12:21;1.67;;;1.10;;
7233;SDS011;3658;47.992;10.158;2023-05-08T06:14:48;2.73;;;1.30;;
7233;SDS011;3658;47.992;10.158;2023-05-08T06:17:16;1.87;;;1.03;;
7233;SDS011;3658;47.992;10.158;2023-05-08T06:19:43;1.33;;;0.97;;
7233;SDS011;3658;47.992;10.158;2023-05-08T06:22:14;1.37;;;1.10;;
7233;SDS011;3658;47.992;10.158;2023-05-08T06:24:41;0.83;;;0.83;;
7233;SDS011;3658;47.992;10.158;2023-05-08T06:27:08;1.57;;;1.00;;
7233;SDS011;3658;47.992;10.158;2023-05-08T06:29:36;8.97;;;1.57;;
7233;SDS011;3658;47.992;10.158;2023-05-08T06:32:03;3.17;;;1.10;;
7233;SDS011;3658;47.992;10.158;2023-05-08T06:34:30;1.53;;;0.97;;
7233;SDS011;3658;47.992;10.158;2023-05-08T06:36:57;1.10;;;0.97;;
7233;SDS011;3658;47.992;10.158;2023-05-08T06:39:24;1.20;;;1.10;;
7233;SDS011;3658;47.992;10.158;2023-05-08T06:41:51;3.70;;;1.27;;
7233;SDS011;3658;47.992;10.158;2023-05-08T06:44:18;1.20;;;1.10;;
7233;SDS011;3658;47.992;10.158;2023-05-08T06:46:46;1.27;;;1.17;;
7233;SDS011;3658;47.992;10.158;2023-05-08T06:49:12;1.20;;;1.00;;
7233;SDS011;3658;47.992;10.158;2023-05-08T06:51:39;4.87;;;1.10;;
7233;SDS011;3658;47.992;10.158;2023-05-08T06:54:06;2.03;;;0.90;;
7233;SDS011;3658;47.992;10.158;2023-05-08T06:56:33;1.10;;;1.00;;
7233;SDS011;3658;47.992;10.158;2023-05-08T06:59:00;1.00;;;1.00;;
7233;SDS011;3658;47.992;10.158;2023-05-08T07:01:27;1.30;;;1.00;;
7233;SDS011;3658;47.992;10.158;2023-05-08T07:03:55;0.97;;;0.97;;
7233;SDS011;3658;47.992;10.158;2023-05-08T07:06:22;1.33;;;0.97;;
7233;SDS011;3658;47.992;10.158;2023-05-08T07:08:48;1.90;;;0.97;;
7233;SDS011;3658;47.992;10.158;2023-05-08T07:11:15;1.13;;;1.00;;
7233;SDS011;3658;47.992;10.158;2023-05-08T07:13:42;1.43;;;1.07;;
7233;SDS011;3658;47.992;10.158;2023-05-08T07:16:12;1.70;;;1.00;;
7233;SDS011;3658;47.992;10.158;2023-05-08T07:18:38;0.90;;;0.90;;
7233;SDS011;3658;47.992;10.158;2023-05-08T07:21:07;1.33;;;1.13;;
7233;SDS011;3658;47.992;10.158;2023-05-08T07:23:33;1.30;;;1.20;;
7233;SDS011;3658;47.992;10.158;2023-05-08T07:26:00;2.47;;;1.07;;
7233;SDS011;3658;47.992;10.158;2023-05-08T07:28:27;0.93;;;0.93;;
7233;SDS011;3658;47.992;10.158;2023-05-08T07:30:54;1.13;;;0.90;;
7233;SDS011;3658;47.992;10.158;2023-05-08T07:33:21;1.67;;;1.00;;
7233;SDS011;3658;47.992;10.158;2023-05-08T07:35:48;1.80;;;0.90;;
7233;SDS011;3658;47.992;10.158;2023-05-08T07:38:16;1.10;;;1.00;;
7233;SDS011;3658;47.992;10.158;2023-05-08T07:40:43;1.30;;;1.20;;
7233;SDS011;3658;47.992;10.158;2023-05-08T07:43:10;1.67;;;1.03;;
7233;SDS011;3658;47.992;10.158;2023-05-08T07:45:37;1.30;;;1.20;;
7233;SDS011;3658;47.992;10.158;2023-05-08T07:48:04;1.03;;;0.90;;
7233;SDS011;3658;47.992;10.158;2023-05-08T07:50:32;3.03;;;0.90;;
7233;SDS011;3658;47.992;10.158;2023-05-08T07:52:58;1.10;;;1.00;;
7233;SDS011;3658;47.992;10.158;2023-05-08T07:55:26;1.10;;;1.00;;
7233;SDS011;3658;47.992;10.158;2023-05-08T07:57:53;1.43;;;1.20;;
7233;SDS011;3658;47.992;10.158;2023-05-08T08:00:20;1.20;;;1.00;;
7233;SDS011;3658;47.992;10.158;2023-05-08T08:02:48;2.03;;;1.00;;
7233;SDS011;3658;47.992;10.158;2023-05-08T08:05:15;1.10;;;1.00;;
7233;SDS011;3658;47.992;10.158;2023-05-08T08:07:41;3.90;;;1.10;;
7233;SDS011;3658;47.992;10.158;2023-05-08T08:10:08;1.30;;;1.20;;
7233;SDS011;3658;47.992;10.158;2023-05-08T08:12:37;1.60;;;1.20;;
7233;SDS011;3658;47.992;10.158;2023-05-08T08:15:04;2.13;;;1.10;;
7233;SDS011;3658;47.992;10.158;2023-05-08T08:17:31;2.40;;;2.00;;
7233;SDS011;3658;47.992;10.158;2023-05-08T08:19:58;2.50;;;2.30;;
7233;SDS011;3658;47.992;10.158;2023-05-08T08:22:25;2.97;;;2.67;;
7233;SDS011;3658;47.992;10.158;2023-05-08T08:24:53;3.93;;;2.80;;
7233;SDS011;3658;47.992;10.158;2023-05-08T08:27:20;3.63;;;3.10;;
7233;SDS011;3658;47.992;10.158;2023-05-08T08:29:49;3.97;;;3.17;;
7233;SDS011;3658;47.992;10.158;2023-05-08T08:32:15;4.20;;;3.30;;
7233;SDS011;3658;47.992;10.158;2023-05-08T08:34:42;3.90;;;3.20;;
7233;SDS011;3658;47.992;10.158;2023-05-08T08:37:09;4.17;;;2.83;;
7233;SDS011;3658;47.992;10.158;2023-05-08T08:39:36;3.27;;;2.83;;
7233;SDS011;3658;47.992;10.158;2023-05-08T08:42:03;5.23;;;3.20;;
7233;SDS011;3658;47.992;10.158;2023-05-08T08:44:30;3.33;;;3.00;;
7233;SDS011;3658;47.992;10.158;2023-05-08T08:46:58;5.00;;;3.03;;
7233;SDS011;3658;47.992;10.158;2023-05-08T08:49:27;5.53;;;3.00;;
7233;SDS011;3658;47.992;10.158;2023-05-08T08:51:57;3.77;;;2.53;;
7233;SDS011;3658;47.992;10.158;2023-05-08T08:54:27;7.30;;;3.07;;
7233;SDS011;3658;47.992;10.158;2023-05-08T08:56:56;3.03;;;2.73;;
7233;SDS011;3658;47.992;10.158;2023-05-08T08:59:26;3.77;;;2.47;;
7233;SDS011;3658;47.992;10.158;2023-05-08T09:01:55;3.43;;;2.97;;
7233;SDS011;3658;47.992;10.158;2023-05-08T09:04:27;2.90;;;2.40;;
7233;SDS011;3658;47.992;10.158;2023-05-08T09:06:55;4.67;;;2.67;;
7233;SDS011;3658;47.992;10.158;2023-05-08T09:09:23;6.90;;;2.43;;
7233;SDS011;3658;47.992;10.158;2023-05-08T09:11:50;2.80;;;2.40;;
7233;SDS011;3658;47.992;10.158;2023-05-08T09:14:18;3.20;;;2.03;;
7233;SDS011;3658;47.992;10.158;2023-05-08T09:16:45;3.90;;;2.50;;
7233;SDS011;3658;47.992;10.158;2023-05-08T09:19:12;2.67;;;2.33;;
7233;SDS011;3658;47.992;10.158;2023-05-08T09:21:40;3.50;;;2.63;;
7233;SDS011;3658;47.992;10.158;2023-05-08T09:24:08;2.80;;;2.30;;
7233;SDS011;3658;47.992;10.158;2023-05-08T09:26:36;2.57;;;2.17;;
7233;SDS011;3658;47.992;10.158;2023-05-08T09:29:07;2.40;;;2.13;;
7233;SDS011;3658;47.992;10.158;2023-05-08T09:31:35;2.43;;;2.23;;
7233;SDS011;3658;47.992;10.158;2023-05-08T09:34:04;4.77;;;2.30;;
7233;SDS011;3658;47.992;10.158;2023-05-08T09:36:31;2.40;;;2.20;;
7233;SDS011;3658;47.992;10.158;2023-05-08T09:39:00;2.83;;;2.07;;
7233;SDS011;3658;47.992;10.158;2023-05-08T09:41:27;3.57;;;2.50;;
7233;SDS011;3658;47.992;10.158;2023-05-08T09:44:01;2.47;;;2.07;;
7233;SDS011;3658;47.992;10.158;2023-05-08T09:46:29;4.87;;;2.33;;
7233;SDS011;3658;47.992;10.158;2023-05-08T09:48:58;2.73;;;2.40;;
7233;SDS011;3658;47.992;10.158;2023-05-08T09:51:26;3.30;;;2.30;;
7233;SDS011;3658;47.992;10.158;2023-05-08T09:53:54;4.80;;;2.00;;
7233;SDS011;3658;47.992;10.158;2023-05-08T09:56:36;3.73;;;2.00;;
7233;SDS011;3658;47.992;10.158;2023-05-08T09:59:04;3.60;;;2.00;;
7233;SDS011;3658;47.992;10.158;2023-05-08T10:01:47;2.80;;;1.97;;
7233;SDS011;3658;47.992;10.158;2023-05-08T10:04:14;2.73;;;2.00;;
7233;SDS011;3658;47.992;10.158;2023-05-08T10:06:40;3.70;;;2.03;;
7233;SDS011;3658;47.992;10.158;2023-05-08T10:09:08;2.33;;;2.00;;
7233;SDS011;3658;47.992;10.158;2023-05-08T10:11:38;3.27;;;1.97;;
7233;SDS011;3658;47.992;10.158;2023-05-08T10:14:05;4.70;;;1.97;;
7233;SDS011;3658;47.992;10.158;2023-05-08T10:16:35;3.87;;;1.97;;
7233;SDS011;3658;47.992;10.158;2023-05-08T10:19:09;2.47;;;1.83;;
7233;SDS011;3658;47.992;10.158;2023-05-08T10:21:39;2.00;;;1.80;;
7233;SDS011;3658;47.992;10.158;2023-05-08T10:24:11;3.70;;;2.07;;
7233;SDS011;3658;47.992;10.158;2023-05-08T10:26:42;4.97;;;1.87;;
7233;SDS011;3658;47.992;10.158;2023-05-08T10:29:20;3.40;;;2.00;;
7233;SDS011;3658;47.992;10.158;2023-05-08T10:31:52;4.53;;;1.90;;
7233;SDS011;3658;47.992;10.158;2023-05-08T10:34:21;4.90;;;2.07;;
7233;SDS011;3658;47.992;10.158;2023-05-08T10:36:49;4.27;;;1.83;;
7233;SDS011;3658;47.992;10.158;2023-05-08T10:39:17;2.40;;;2.00;;
7233;SDS011;3658;47.992;10.158;2023-05-08T10:41:46;2.10;;;1.90;;
7233;SDS011;3658;47.992;10.158;2023-05-08T10:44:14;2.73;;;1.60;;
7233;SDS011;3658;47.992;10.158;2023-05-08T10:46:43;1.93;;;1.67;;
7233;SDS011;3658;47.992;10.158;2023-05-08T10:49:17;3.03;;;1.47;;
7233;SDS011;3658;47.992;10.158;2023-05-08T10:51:51;2.17;;;1.40;;
7233;SDS011;3658;47.992;10.158;2023-05-08T10:54:25;3.57;;;1.60;;
7233;SDS011;3658;47.992;10.158;2023-05-08T10:57:07;1.90;;;1.40;;
7233;SDS011;3658;47.992;10.158;2023-05-08T10:59:35;1.63;;;1.33;;
7233;SDS011;3658;47.992;10.158;2023-05-08T11:02:02;1.23;;;1.13;;
7233;SDS011;3658;47.992;10.158;2023-05-08T11:04:30;1.30;;;1.20;;
7233;SDS011;3658;47.992;10.158;2023-05-08T11:06:57;3.13;;;1.30;;
7233;SDS011;3658;47.992;10.158;2023-05-08T11:09:26;1.20;;;1.10;;
7233;SDS011;3658;47.992;10.158;2023-05-08T11:12:15;1.50;;;1.30;;
7233;SDS011;3658;47.992;10.158;2023-05-08T11:14:52;1.43;;;1.30;;
7233;SDS011;3658;47.992;10.158;2023-05-08T11:17:22;1.63;;;1.40;;
7233;SDS011;3658;47.992;10.158;2023-05-08T11:19:56;2.73;;;1.10;;
7233;SDS011;3658;47.992;10.158;2023-05-08T11:22:25;3.13;;;1.30;;
7233;SDS011;3658;47.992;10.158;2023-05-08T11:24:54;2.17;;;1.47;;
7233;SDS011;3658;47.992;10.158;2023-05-08T11:27:34;2.57;;;1.60;;
7233;SDS011;3658;47.992;10.158;2023-05-08T11:30:35;2.13;;;1.20;;
7233;SDS011;3658;47.992;10.158;2023-05-08T11:35:57;1.20;;;1.10;;
7233;SDS011;3658;47.992;10.158;2023-05-08T11:38:29;3.20;;;1.20;;
7233;SDS011;3658;47.992;10.158;2023-05-08T11:41:00;3.87;;;1.23;;
7233;SDS011;3658;47.992;10.158;2023-05-08T11:43:39;1.60;;;1.10;;
7233;SDS011;3658;47.992;10.158;2023-05-08T11:46:20;2.03;;;1.20;;
7233;SDS011;3658;47.992;10.158;2023-05-08T11:48:47;1.23;;;1.13;;
7233;SDS011;3658;47.992;10.158;2023-05-08T11:51:15;4.00;;;1.17;;
7233;SDS011;3658;47.992;10.158;2023-05-08T11:53:44;2.90;;;1.60;;
7233;SDS011;3658;47.992;10.158;2023-05-08T11:56:12;3.03;;;1.23;;
7233;SDS011;3658;47.992;10.158;2023-05-08T11:58:40;2.70;;;1.57;;
7233;SDS011;3658;47.992;10.158;2023-05-08T12:01:08;2.60;;;1.30;;
7233;SDS011;3658;47.992;10.158;2023-05-08T12:03:35;2.63;;;1.30;;
7233;SDS011;3658;47.992;10.158;2023-05-08T12:06:01;3.07;;;1.40;;
7233;SDS011;3658;47.992;10.158;2023-05-08T12:08:29;4.13;;;1.30;;
7233;SDS011;3658;47.992;10.158;2023-05-08T12:10:56;4.00;;;1.00;;
7233;SDS011;3658;47.992;10.158;2023-05-08T12:13:23;2.43;;;1.37;;
7233;SDS011;3658;47.992;10.158;2023-05-08T12:15:53;1.67;;;1.30;;
7233;SDS011;3658;47.992;10.158;2023-05-08T12:18:21;3.77;;;1.30;;
7233;SDS011;3658;47.992;10.158;2023-05-08T12:20:50;3.53;;;1.10;;
7233;SDS011;3658;47.992;10.158;2023-05-08T12:23:18;1.70;;;1.20;;
7233;SDS011;3658;47.992;10.158;2023-05-08T12:25:45;2.13;;;1.37;;
7233;SDS011;3658;47.992;10.158;2023-05-08T12:28:12;2.73;;;1.30;;
7233;SDS011;3658;47.992;10.158;2023-05-08T12:30:39;1.20;;;1.10;;
7233;SDS011;3658;47.992;10.158;2023-05-08T12:33:08;1.70;;;1.13;;
7233;SDS011;3658;47.992;10.158;2023-05-08T12:35:36;1.93;;;1.30;;
7233;SDS011;3658;47.992;10.158;2023-05-08T12:38:04;1.40;;;1.20;;
7233;SDS011;3658;47.992;10.158;2023-05-08T12:40:32;3.73;;;1.30;;
7233;SDS011;3658;47.992;10.158;2023-05-08T12:43:00;3.73;;;1.20;;
7233;SDS011;3658;47.992;10.158;2023-05-08T12:45:29;2.40;;;1.30;;
7233;SDS011;3658;47.992;10.158;2023-05-08T12:47:58;0.87;;;0.87;;
7233;SDS011;3658;47.992;10.158;2023-05-08T12:50:28;2.03;;;1.00;;
7233;SDS011;3658;47.992;10.158;2023-05-08T12:53:00;1.70;;;1.40;;
7233;SDS011;3658;47.992;10.158;2023-05-08T12:55:29;1.80;;;1.10;;
7233;SDS011;3658;47.992;10.158;2023-05-08T12:57:58;1.80;;;1.40;;
7233;SDS011;3658;47.992;10.158;2023-05-08T13:00:33;2.57;;;1.30;;
7233;SDS011;3658;47.992;10.158;2023-05-08T13:03:01;4.57;;;1.40;;
7233;SDS011;3658;47.992;10.158;2023-05-08T13:05:30;1.40;;;1.20;;
7233;SDS011;3658;47.992;10.158;2023-05-08T13:08:00;1.50;;;1.20;;
7233;SDS011;3658;47.992;10.158;2023-05-08T13:10:43;4.20;;;1.60;;
7233;SDS011;3658;47.992;10.158;2023-05-08T13:13:11;2.13;;;1.20;;
7233;SDS011;3658;47.992;10.158;2023-05-08T13:15:38;1.90;;;1.23;;
7233;SDS011;3658;47.992;10.158;2023-05-08T13:18:05;1.57;;;1.17;;
7233;SDS011;3658;47.992;10.158;2023-05-08T13:20:33;1.73;;;1.33;;
7233;SDS011;3658;47.992;10.158;2023-05-08T13:23:00;3.17;;;1.27;;
7233;SDS011;3658;47.992;10.158;2023-05-08T13:25:28;5.33;;;1.57;;
7233;SDS011;3658;47.992;10.158;2023-05-08T13:27:56;1.50;;;1.40;;
7233;SDS011;3658;47.992;10.158;2023-05-08T13:30:23;2.93;;;1.30;;
7233;SDS011;3658;47.992;10.158;2023-05-08T13:32:51;1.50;;;1.40;;
7233;SDS011;3658;47.992;10.158;2023-05-08T13:35:18;2.93;;;1.20;;
7233;SDS011;3658;47.992;10.158;2023-05-08T13:37:47;3.07;;;1.40;;
7233;SDS011;3658;47.992;10.158;2023-05-08T13:40:14;2.20;;;1.00;;
7233;SDS011;3658;47.992;10.158;2023-05-08T13:42:42;1.80;;;1.70;;
7233;SDS011;3658;47.992;10.158;2023-05-08T13:45:09;1.50;;;1.40;;
7233;SDS011;3658;47.992;10.158;2023-05-08T13:47:38;2.23;;;1.50;;
7233;SDS011;3658;47.992;10.158;2023-05-08T13:50:05;1.50;;;1.40;;
7233;SDS011;3658;47.992;10.158;2023-05-08T13:52:33;1.40;;;1.30;;
7233;SDS011;3658;47.992;10.158;2023-05-08T13:55:01;1.73;;;1.47;;
7233;SDS011;3658;47.992;10.158;2023-05-08T13:57:28;2.10;;;1.40;;
7233;SDS011;3658;47.992;10.158;2023-05-08T13:59:55;2.93;;;1.60;;
7233;SDS011;3658;47.992;10.158;2023-05-08T14:02:22;1.87;;;1.40;;
7233;SDS011;3658;47.992;10.158;2023-05-08T14:04:48;3.40;;;1.50;;
7233;SDS011;3658;47.992;10.158;2023-05-08T14:07:15;1.93;;;1.40;;
7233;SDS011;3658;47.992;10.158;2023-05-08T14:09:42;1.70;;;1.40;;
7233;SDS011;3658;47.992;10.158;2023-05-08T14:12:11;3.20;;;1.50;;
7233;SDS011;3658;47.992;10.158;2023-05-08T14:14:38;2.60;;;1.40;;
7233;SDS011;3658;47.992;10.158;2023-05-08T14:17:05;2.03;;;1.50;;
7233;SDS011;3658;47.992;10.158;2023-05-08T14:19:32;4.40;;;1.50;;
7233;SDS011;3658;47.992;10.158;2023-05-08T14:21:59;1.27;;;1.17;;
7233;SDS011;3658;47.992;10.158;2023-05-08T14:24:26;1.70;;;1.50;;
7233;SDS011;3658;47.992;10.158;2023-05-08T14:26:53;2.53;;;1.60;;
7233;SDS011;3658;47.992;10.158;2023-05-08T14:29:21;2.70;;;1.30;;
7233;SDS011;3658;47.992;10.158;2023-05-08T14:31:48;3.37;;;1.30;;
7233;SDS011;3658;47.992;10.158;2023-05-08T14:34:14;1.67;;;1.40;;
7233;SDS011;3658;47.992;10.158;2023-05-08T14:36:41;1.50;;;1.40;;
7233;SDS011;3658;47.992;10.158;2023-05-08T14:39:08;1.40;;;1.30;;
7233;SDS011;3658;47.992;10.158;2023-05-08T14:41:35;1.40;;;1.30;;
7233;SDS011;3658;47.992;10.158;2023-05-08T14:44:03;1.43;;;1.33;;
7233;SDS011;3658;47.992;10.158;2023-05-08T14:46:31;1.50;;;1.40;;
7233;SDS011;3658;47.992;10.158;2023-05-08T14:48:58;1.73;;;1.30;;
7233;SDS011;3658;47.992;10.158;2023-05-08T14:51:25;1.47;;;1.30;;
7233;SDS011;3658;47.992;10.158;2023-05-08T14:53:52;1.50;;;1.30;;
7233;SDS011;3658;47.992;10.158;2023-05-08T14:56:19;1.70;;;1.50;;
7233;SDS011;3658;47.992;10.158;2023-05-08T14:58:48;1.63;;;1.40;;
7233;SDS011;3658;47.992;10.158;2023-05-08T15:01:16;1.83;;;1.67;;
7233;SDS011;3658;47.992;10.158;2023-05-08T15:03:44;1.60;;;1.50;;
7233;SDS011;3658;47.992;10.158;2023-05-08T15:06:16;1.37;;;1.27;;
7233;SDS011;3658;47.992;10.158;2023-05-08T15:08:44;1.50;;;1.30;;
7233;SDS011;3658;47.992;10.158;2023-05-08T15:11:11;2.07;;;1.50;;
7233;SDS011;3658;47.992;10.158;2023-05-08T15:13:38;1.60;;;1.50;;
7233;SDS011;3658;47.992;10.158;2023-05-08T15:16:05;2.07;;;1.70;;
7233;SDS011;3658;47.992;10.158;2023-05-08T15:18:31;1.40;;;1.30;;
7233;SDS011;3658;47.992;10.158;2023-05-08T15:21:00;1.53;;;1.30;;
7233;SDS011;3658;47.992;10.158;2023-05-08T15:23:27;1.40;;;1.30;;